createdAt,value
2023-04-14T00:01:18.587Z,4.47
2023-04-14T00:03:46.472Z,8.40
2023-04-14T00:06:14.097Z,4.32
2023-04-14T00:08:41.796Z,9.00
2023-04-14T00:11:09.755Z,4.03
2023-04-14T00:13:38.043Z,6.53
2023-04-14T00:16:07.102Z,7.05
2023-04-14T00:18:34.626Z,11.02
2023-04-14T00:21:02.791Z,8.65
2023-04-14T00:23:30.401Z,10.40
2023-04-14T00:26:01.724Z,14.07
2023-04-14T00:28:29.288Z,7.03
2023-04-14T00:30:56.815Z,7.43
2023-04-14T00:33:25.346Z,11.48
2023-04-14T00:35:54.527Z,11.50
2023-04-14T00:38:22.156Z,6.07
2023-04-14T00:40:49.600Z,5.68
2023-04-14T00:43:20.809Z,9.45
2023-04-14T00:45:50.616Z,5.30
2023-04-14T00:50:47.984Z,5.93
2023-04-14T00:53:15.746Z,5.15
2023-04-14T00:55:43.463Z,6.90
2023-04-14T00:58:12.446Z,4.85
2023-04-14T01:00:40.028Z,5.20
2023-04-14T01:03:07.981Z,4.40
2023-04-14T01:05:35.663Z,7.93
2023-04-14T01:08:04.412Z,5.32
2023-04-14T01:10:41.194Z,10.73
2023-04-14T01:13:24.171Z,6.32
2023-04-14T01:16:01.525Z,7.05
2023-04-14T01:18:51.020Z,9.63
2023-04-14T01:21:26.124Z,12.15
2023-04-14T01:24:14.728Z,10.32
2023-04-14T01:26:43.732Z,8.15
2023-04-14T01:30:06.920Z,6.13
2023-04-14T01:32:42.853Z,7.72
2023-04-14T01:35:27.107Z,10.27
2023-04-14T01:38:01.260Z,10.68
2023-04-14T01:40:31.850Z,5.72
2023-04-14T01:43:08.748Z,4.95
2023-04-14T01:45:52.955Z,8.60
2023-04-14T01:48:21.259Z,5.43
2023-04-14T01:50:49.567Z,9.13
2023-04-14T01:53:19.652Z,4.20
2023-04-14T01:55:49.554Z,3.67
2023-04-14T01:58:20.494Z,15.73
2023-04-14T02:00:50.884Z,3.25
2023-04-14T02:03:20.697Z,8.68
2023-04-14T02:05:51.413Z,7.38
2023-04-14T02:08:21.085Z,12.85
2023-04-14T02:10:51.628Z,5.85
2023-04-14T02:13:22.121Z,5.13
2023-04-14T02:15:53.838Z,6.90
2023-04-14T02:18:23.238Z,4.22
2023-04-14T02:20:52.778Z,3.47
2023-04-14T02:23:20.561Z,7.75
2023-04-14T02:26:04.822Z,7.05
2023-04-14T02:28:37.629Z,6.85
2023-04-14T02:31:10.128Z,3.47
2023-04-14T02:33:40.043Z,4.85
2023-04-14T02:38:57.966Z,2.85
2023-04-14T02:41:28.245Z,5.72
2023-04-14T02:44:10.797Z,5.40
2023-04-14T02:46:42.578Z,8.52
2023-04-14T02:49:13.454Z,4.20
2023-04-14T02:51:45.340Z,2.72
2023-04-14T02:54:15.928Z,12.60
2023-04-14T02:56:47.740Z,8.25
2023-04-14T02:59:21.200Z,4.78
2023-04-14T03:02:02.930Z,9.23
2023-04-14T03:04:36.749Z,5.07
2023-04-14T03:07:09.389Z,4.47
2023-04-14T03:09:37.440Z,6.40
2023-04-14T03:12:06.334Z,3.85
2023-04-14T03:14:35.838Z,6.45
2023-04-14T03:17:05.895Z,5.25
2023-04-14T03:19:34.765Z,10.07
2023-04-14T03:22:04.580Z,7.57
2023-04-14T03:24:35.382Z,11.75
2023-04-14T03:27:06.935Z,4.25
2023-04-14T03:29:42.093Z,4.60
2023-04-14T03:32:11.848Z,4.47
2023-04-14T03:34:56.642Z,6.55
2023-04-14T03:37:33.701Z,4.50
2023-04-14T03:40:05.857Z,6.50
2023-04-14T03:42:36.210Z,6.63
2023-04-14T03:47:36.000Z,5.70
2023-04-14T03:50:06.069Z,6.97
2023-04-14T03:52:38.039Z,5.60
2023-04-14T03:55:08.721Z,5.43
2023-04-14T03:57:39.969Z,3.15
2023-04-14T04:00:10.327Z,8.15
2023-04-14T04:02:42.991Z,7.35
2023-04-14T04:05:13.434Z,8.50
2023-04-14T04:07:44.767Z,7.45
2023-04-14T04:10:14.182Z,7.95
2023-04-14T04:12:43.490Z,5.93
2023-04-14T04:15:12.240Z,6.45
2023-04-14T04:17:43.321Z,4.22
2023-04-14T04:20:15.794Z,2.88
2023-04-14T04:22:47.454Z,5.93
2023-04-14T04:25:19.523Z,4.40
2023-04-14T04:27:56.114Z,10.52
2023-04-14T04:30:25.288Z,2.75
2023-04-14T04:32:52.936Z,5.28
2023-04-14T04:35:22.139Z,5.10
2023-04-14T04:37:50.805Z,11.20
2023-04-14T04:40:20.964Z,10.52
2023-04-14T04:42:50.941Z,7.70
2023-04-14T04:45:50.435Z,7.82
2023-04-14T04:48:18.105Z,3.75
2023-04-14T04:50:46.382Z,9.57
2023-04-14T04:53:15.271Z,7.30
2023-04-14T04:55:42.860Z,10.25
2023-04-14T04:58:10.825Z,3.53
2023-04-14T05:00:41.223Z,7.95
2023-04-14T05:03:11.668Z,5.53
2023-04-14T05:05:39.232Z,11.65
2023-04-14T05:08:07.864Z,6.95
2023-04-14T05:10:37.066Z,8.55
2023-04-14T05:13:04.775Z,10.23
2023-04-14T05:15:32.920Z,12.70
2023-04-14T05:18:04.206Z,7.35
2023-04-14T05:20:34.681Z,15.60
2023-04-14T05:23:02.735Z,11.48
2023-04-14T05:25:30.939Z,11.20
2023-04-14T05:27:58.492Z,7.20
2023-04-14T05:30:26.595Z,6.97
2023-04-14T05:32:54.496Z,11.77
2023-04-14T05:35:24.824Z,5.40
2023-04-14T05:37:52.364Z,12.23
2023-04-14T05:40:22.917Z,7.47
2023-04-14T05:42:50.598Z,8.70
2023-04-14T05:45:19.235Z,12.88
2023-04-14T05:47:48.180Z,6.30
2023-04-14T05:50:16.528Z,9.13
2023-04-14T05:52:44.145Z,8.48
2023-04-14T05:55:11.717Z,7.40
2023-04-14T05:57:40.028Z,6.05
2023-04-14T06:00:10.272Z,16.85
2023-04-14T06:02:41.211Z,5.03
2023-04-14T06:05:09.502Z,11.55
2023-04-14T06:07:37.470Z,4.60
2023-04-14T06:10:05.525Z,8.25
2023-04-14T06:12:33.544Z,13.00
2023-04-14T06:15:01.489Z,11.32
2023-04-14T06:17:29.081Z,10.73
2023-04-14T06:19:57.380Z,8.30
2023-04-14T06:22:29.332Z,13.55
2023-04-14T06:24:59.585Z,7.15
2023-04-14T06:27:27.157Z,8.02
2023-04-14T06:29:54.729Z,5.38
2023-04-14T06:32:22.559Z,10.50
2023-04-14T06:34:51.343Z,11.65
2023-04-14T06:37:23.540Z,7.97
2023-04-14T06:39:51.399Z,11.65
2023-04-14T06:42:21.774Z,6.43
2023-04-14T06:44:50.473Z,10.63
2023-04-14T06:47:19.709Z,10.23
2023-04-14T06:49:47.589Z,4.32
2023-04-14T06:52:15.168Z,5.30
2023-04-14T06:54:43.095Z,6.53
2023-04-14T06:57:10.631Z,9.38
2023-04-14T06:59:38.910Z,7.22
2023-04-14T07:02:09.412Z,14.02
2023-04-14T07:04:40.214Z,3.60
2023-04-14T07:07:07.808Z,9.13
2023-04-14T07:09:37.669Z,6.35
2023-04-14T07:14:33.806Z,3.28
2023-04-14T07:17:04.414Z,7.28
2023-04-14T07:19:32.620Z,6.28
2023-04-14T07:22:00.273Z,14.07
2023-04-14T07:24:27.801Z,5.78
2023-04-14T07:26:55.603Z,8.88
2023-04-14T07:29:23.549Z,7.35
2023-04-14T07:31:51.198Z,10.30
2023-04-14T07:34:20.898Z,15.68
2023-04-14T07:36:48.720Z,8.75
2023-04-14T07:39:16.677Z,3.63
2023-04-14T07:41:44.557Z,6.55
2023-04-14T07:44:12.276Z,6.07
2023-04-14T07:46:39.934Z,8.90
2023-04-14T07:49:08.442Z,9.20
2023-04-14T07:51:36.312Z,7.45
2023-04-14T07:54:05.899Z,8.07
2023-04-14T07:56:33.711Z,5.70
2023-04-14T07:59:01.604Z,7.80
2023-04-14T08:01:32.704Z,7.55
2023-04-14T08:04:00.700Z,6.38
2023-04-14T08:06:28.513Z,9.30
2023-04-14T08:08:56.082Z,8.43
2023-04-14T08:11:23.632Z,9.27
2023-04-14T08:13:52.949Z,9.10
2023-04-14T08:16:20.687Z,7.32
2023-04-14T08:18:48.625Z,8.68
2023-04-14T08:21:16.713Z,15.63
2023-04-14T08:23:44.329Z,3.45
2023-04-14T08:26:12.258Z,4.55
2023-04-14T08:28:39.802Z,4.93
2023-04-14T08:31:07.390Z,8.65
2023-04-14T08:33:35.002Z,7.68
2023-04-14T08:36:02.650Z,6.45
2023-04-14T08:38:30.444Z,4.10
2023-04-14T08:41:01.114Z,4.97
2023-04-14T08:43:29.324Z,3.55
2023-04-14T08:45:58.172Z,2.80
2023-04-14T08:48:30.558Z,5.97
2023-04-14T08:51:32.063Z,6.32
2023-04-14T08:54:01.446Z,5.85
2023-04-14T08:56:33.802Z,3.05
2023-04-14T08:59:01.925Z,7.45
2023-04-14T09:01:30.050Z,5.75
2023-04-14T09:03:58.411Z,7.55
2023-04-14T09:06:28.102Z,3.92
2023-04-14T09:08:55.805Z,7.80
2023-04-14T09:11:23.819Z,4.25
2023-04-14T09:13:53.516Z,4.90
2023-04-14T09:16:21.456Z,4.95
2023-04-14T09:18:49.799Z,5.72
2023-04-14T09:21:50.795Z,3.80
2023-04-14T09:24:07.424Z,3.78
2023-04-14T09:26:34.945Z,6.40
2023-04-14T09:29:02.736Z,8.00
2023-04-14T09:31:30.966Z,4.38
2023-04-14T09:33:58.991Z,6.10
2023-04-14T09:36:28.972Z,7.03
2023-04-14T09:38:57.270Z,4.75
2023-04-14T09:41:28.106Z,7.20
2023-04-14T09:43:55.968Z,5.32
2023-04-14T09:46:23.735Z,4.55
2023-04-14T09:48:53.932Z,7.43
2023-04-14T09:51:23.513Z,3.55
2023-04-14T09:53:55.861Z,4.93
2023-04-14T09:56:27.933Z,5.25
2023-04-14T09:59:02.822Z,6.93
2023-04-14T10:01:33.909Z,6.00
2023-04-14T10:04:02.885Z,8.48
2023-04-14T10:06:33.765Z,8.20
2023-04-14T10:09:01.987Z,7.65
2023-04-14T10:11:32.707Z,4.72
2023-04-14T10:14:07.479Z,4.60
2023-04-14T10:16:35.317Z,7.75
2023-04-14T10:19:03.677Z,7.40
2023-04-14T10:21:32.821Z,6.88
2023-04-14T10:24:01.453Z,8.60
2023-04-14T10:26:30.158Z,4.30
2023-04-14T10:28:58.212Z,4.13
2023-04-14T10:31:30.935Z,5.97
2023-04-14T10:33:59.056Z,4.53
2023-04-14T10:36:29.236Z,4.07
2023-04-14T10:39:02.432Z,2.65
2023-04-14T10:41:48.993Z,1.80
2023-04-14T10:44:25.974Z,8.85
2023-04-14T10:46:56.325Z,2.53
2023-04-14T10:49:30.248Z,4.05
2023-04-14T10:52:13.601Z,3.70
2023-04-14T10:54:53.684Z,6.10
2023-04-14T10:57:26.699Z,3.50
2023-04-14T10:59:56.405Z,4.10
2023-04-14T11:02:30.211Z,4.90
2023-04-14T11:05:04.520Z,5.80
2023-04-14T11:07:47.151Z,10.48
2023-04-14T11:10:18.086Z,9.93
2023-04-14T11:13:04.112Z,4.85
2023-04-14T11:15:48.046Z,6.43
2023-04-14T11:18:20.512Z,4.38
2023-04-14T11:20:51.424Z,6.60
2023-04-14T11:23:28.052Z,3.40
2023-04-14T11:25:57.598Z,7.63
2023-04-14T11:28:48.505Z,7.80
2023-04-14T11:31:17.507Z,4.55
2023-04-14T11:33:45.523Z,5.97
2023-04-14T11:36:13.499Z,5.65
2023-04-14T11:38:42.521Z,3.30
2023-04-14T11:41:10.491Z,9.33
2023-04-14T11:43:39.009Z,5.50
2023-04-14T11:46:08.779Z,6.82
2023-04-14T11:48:37.278Z,7.72
2023-04-14T11:51:05.267Z,5.63
2023-04-14T11:53:33.867Z,4.50
2023-04-14T11:56:01.428Z,7.10
2023-04-14T11:58:29.316Z,4.32
2023-04-14T12:00:59.906Z,3.10
2023-04-14T12:03:29.285Z,7.13
2023-04-14T12:06:00.626Z,3.20
2023-04-14T12:08:34.860Z,5.95
2023-04-14T12:11:15.723Z,4.72
2023-04-14T12:13:45.110Z,3.28
2023-04-14T12:16:14.868Z,4.18
2023-04-14T12:18:43.254Z,5.28
2023-04-14T12:21:15.790Z,3.38
2023-04-14T12:23:48.618Z,8.90
2023-04-14T12:26:16.654Z,5.63
2023-04-14T12:28:45.000Z,3.00
2023-04-14T12:31:12.798Z,9.00
2023-04-14T12:33:40.739Z,10.60
2023-04-14T12:36:12.303Z,4.53
2023-04-14T12:38:39.967Z,6.10
2023-04-14T12:41:07.847Z,4.40
2023-04-14T12:43:41.015Z,4.68
2023-04-14T12:46:08.568Z,3.00
2023-04-14T12:48:44.799Z,2.05
2023-04-14T12:51:22.614Z,4.93
2023-04-14T12:54:06.163Z,4.95
2023-04-14T12:56:42.545Z,6.97
2023-04-14T12:59:10.139Z,3.72
2023-04-14T13:01:37.835Z,5.18
2023-04-14T13:04:06.747Z,3.58
2023-04-14T13:06:35.132Z,3.97
2023-04-14T13:09:03.241Z,3.30
2023-04-14T13:11:31.754Z,3.70
2023-04-14T13:13:59.585Z,6.13
2023-04-14T13:16:27.655Z,5.88
2023-04-14T13:18:55.384Z,7.40
2023-04-14T13:21:22.928Z,8.52
2023-04-14T13:23:50.978Z,11.38
2023-04-14T13:26:20.925Z,5.35
2023-04-14T13:31:18.870Z,3.72
2023-04-14T13:33:46.414Z,5.13
2023-04-14T13:36:14.028Z,4.10
2023-04-14T13:38:41.879Z,4.07
2023-04-14T13:41:09.574Z,6.82
2023-04-14T13:43:37.784Z,4.00
2023-04-14T13:46:05.886Z,7.15
2023-04-14T13:48:36.916Z,4.97
2023-04-14T13:51:05.809Z,3.85
2023-04-14T13:53:33.500Z,6.25
2023-04-14T13:56:01.554Z,6.63
2023-04-14T13:58:29.742Z,3.08
2023-04-14T14:00:57.870Z,5.03
2023-04-14T14:03:26.101Z,7.28
2023-04-14T14:05:55.092Z,5.18
2023-04-14T14:08:22.596Z,5.25
2023-04-14T14:10:50.396Z,1.48
2023-04-14T14:13:20.500Z,2.83
2023-04-14T14:15:48.693Z,1.70
2023-04-14T14:18:16.624Z,4.47
2023-04-14T14:20:45.022Z,3.45
2023-04-14T14:23:12.972Z,3.95
2023-04-14T14:25:41.110Z,3.13
2023-04-14T14:28:09.052Z,3.80
2023-04-14T14:30:36.649Z,4.85
2023-04-14T14:33:04.406Z,2.45
2023-04-14T14:35:32.078Z,9.30
2023-04-14T14:38:00.814Z,3.28
2023-04-14T14:40:29.667Z,6.30
2023-04-14T14:42:57.367Z,3.38
2023-04-14T14:45:30.365Z,10.57
2023-04-14T14:47:59.476Z,6.93
2023-04-14T14:50:27.290Z,3.55
2023-04-14T14:52:56.884Z,3.92
2023-04-14T14:55:24.472Z,3.17
2023-04-14T14:57:52.048Z,4.90
2023-04-14T15:00:19.819Z,1.65
2023-04-14T15:02:47.801Z,2.58
2023-04-14T15:05:18.703Z,5.88
2023-04-14T15:07:46.281Z,4.05
2023-04-14T15:10:15.310Z,4.95
2023-04-14T15:12:42.835Z,4.10
2023-04-14T15:15:10.916Z,4.30
2023-04-14T15:17:38.517Z,5.90
2023-04-14T15:20:07.044Z,2.15
2023-04-14T15:22:35.928Z,3.22
2023-04-14T15:25:03.639Z,2.85
2023-04-14T15:27:31.363Z,7.18
2023-04-14T15:29:58.914Z,2.80
2023-04-14T15:32:27.531Z,4.05
2023-04-14T15:34:55.883Z,5.57
2023-04-14T15:37:23.660Z,1.27
2023-04-14T15:39:51.504Z,5.45
2023-04-14T15:42:19.296Z,4.55
2023-04-14T15:44:48.622Z,4.03
2023-04-14T15:47:16.172Z,2.80
2023-04-14T15:49:44.584Z,4.05
2023-04-14T15:52:17.459Z,2.83
2023-04-14T15:54:44.998Z,4.55
2023-04-14T15:57:12.955Z,4.25
2023-04-14T15:59:40.741Z,6.22
2023-04-14T16:02:08.672Z,10.80
2023-04-14T16:04:39.019Z,6.85
2023-04-14T16:07:07.087Z,5.60
2023-04-14T16:09:36.428Z,3.30
2023-04-14T16:12:04.248Z,6.55
2023-04-14T16:14:32.573Z,5.35
2023-04-14T16:17:00.065Z,3.95
2023-04-14T16:19:27.736Z,4.97
2023-04-14T16:21:56.914Z,3.88
2023-04-14T16:24:24.633Z,6.63
2023-04-14T16:26:52.378Z,7.28
2023-04-14T16:29:21.372Z,5.60
2023-04-14T16:31:49.086Z,4.35
2023-04-14T16:34:20.374Z,4.05
2023-04-14T16:36:50.455Z,3.78
2023-04-14T16:39:18.482Z,5.85
2023-04-14T16:41:48.431Z,4.97
2023-04-14T16:44:16.229Z,4.15
2023-04-14T16:46:43.850Z,3.80
2023-04-14T16:49:11.375Z,8.70
2023-04-14T16:51:39.544Z,4.70
2023-04-14T16:54:07.190Z,3.83
2023-04-14T16:56:36.826Z,2.22
2023-04-14T16:59:07.148Z,5.38
2023-04-14T17:01:37.110Z,2.45
2023-04-14T17:04:06.121Z,2.55
2023-04-14T17:06:33.872Z,1.13
2023-04-14T17:09:01.569Z,6.18
2023-04-14T17:11:29.349Z,3.90
2023-04-14T17:13:56.984Z,4.72
2023-04-14T17:16:24.606Z,2.47
2023-04-14T17:18:52.192Z,4.35
2023-04-14T17:21:19.802Z,3.75
2023-04-14T17:23:47.913Z,2.50
2023-04-14T17:26:16.942Z,2.70
2023-04-14T17:28:44.552Z,4.05
2023-04-14T17:31:14.131Z,3.22
2023-04-14T17:33:43.040Z,4.38
2023-04-14T17:36:14.912Z,7.60
2023-04-14T17:38:43.510Z,5.10
2023-04-14T17:41:12.861Z,3.45
2023-04-14T17:43:41.548Z,1.25
2023-04-14T17:46:09.490Z,2.05
2023-04-14T17:48:37.065Z,2.47
2023-04-14T17:51:05.056Z,1.42
2023-04-14T17:53:32.736Z,3.40
2023-04-14T17:56:00.708Z,4.80
2023-04-14T17:58:28.699Z,1.73
2023-04-14T18:00:57.529Z,1.63
2023-04-14T18:03:25.252Z,2.13
2023-04-14T18:05:54.150Z,4.13
2023-04-14T18:08:21.966Z,4.03
2023-04-14T18:10:52.843Z,2.15
2023-04-14T18:13:21.124Z,2.45
2023-04-14T18:15:52.833Z,2.03
2023-04-14T18:18:20.431Z,1.75
2023-04-14T18:20:52.018Z,1.70
2023-04-14T18:23:19.788Z,4.00
2023-04-14T18:28:18.178Z,3.08
2023-04-14T18:30:56.092Z,2.63
2023-04-14T18:33:24.014Z,5.68
2023-04-14T18:35:52.821Z,2.72
2023-04-14T18:38:20.477Z,1.88
2023-04-14T18:40:51.013Z,2.83
2023-04-14T18:43:18.675Z,1.98
2023-04-14T18:45:52.281Z,1.30
2023-04-14T18:48:20.448Z,2.22
2023-04-14T18:50:50.574Z,0.93
2023-04-14T18:53:19.867Z,1.13
2023-04-14T18:55:48.909Z,2.28
2023-04-14T18:58:17.453Z,2.33
2023-04-14T19:00:45.478Z,3.10
2023-04-14T19:03:13.265Z,2.05
2023-04-14T19:05:41.691Z,3.17
2023-04-14T19:08:09.290Z,1.40
2023-04-14T19:10:37.314Z,2.03
2023-04-14T19:13:05.115Z,1.17
2023-04-14T19:15:32.683Z,3.45
2023-04-14T19:18:01.363Z,0.40
2023-04-14T19:20:29.041Z,0.75
2023-04-14T19:22:56.804Z,2.20
2023-04-14T19:25:24.598Z,0.88
2023-04-14T19:27:52.221Z,1.00
2023-04-14T19:30:22.403Z,0.43
2023-04-14T19:32:50.629Z,2.58
2023-04-14T19:35:18.809Z,0.77
2023-04-14T19:37:46.377Z,1.27
2023-04-14T19:40:14.455Z,3.97
2023-04-14T19:42:42.266Z,2.53
2023-04-14T19:45:10.646Z,3.03
2023-04-14T19:47:38.785Z,2.50
2023-04-14T19:50:09.516Z,2.72
2023-04-14T19:52:39.899Z,1.55
2023-04-14T19:55:07.992Z,2.20
2023-04-14T19:57:35.470Z,1.65
2023-04-14T20:00:05.243Z,3.00
2023-04-14T20:02:40.660Z,1.80
2023-04-14T20:05:08.605Z,2.03
2023-04-14T20:07:36.101Z,1.70
2023-04-14T20:10:04.064Z,1.35
2023-04-14T20:12:34.436Z,2.33
2023-04-14T20:15:03.400Z,1.63
2023-04-14T20:17:33.754Z,2.53
2023-04-14T20:20:05.870Z,1.58
2023-04-14T20:22:34.140Z,1.80
2023-04-14T20:25:02.202Z,2.33
2023-04-14T20:27:29.955Z,5.07
2023-04-14T20:29:58.004Z,3.40
2023-04-14T20:32:25.629Z,2.20
2023-04-14T20:34:54.040Z,2.47
2023-04-14T20:37:21.633Z,2.15
2023-04-14T20:39:49.745Z,4.07
2023-04-14T20:42:17.372Z,2.30
2023-04-14T20:44:44.803Z,2.40
2023-04-14T20:47:12.751Z,6.40
2023-04-14T20:49:40.303Z,5.32
2023-04-14T20:52:07.895Z,5.70
2023-04-14T20:54:36.557Z,3.35
2023-04-14T20:57:05.499Z,3.63
2023-04-14T20:59:33.456Z,5.40
2023-04-14T21:02:01.677Z,4.63
2023-04-14T21:04:29.392Z,4.07
2023-04-14T21:06:57.481Z,4.78
2023-04-14T21:09:25.146Z,8.40
2023-04-14T21:12:14.317Z,10.55
2023-04-14T21:15:44.638Z,11.68
2023-04-14T21:17:28.568Z,9.82
2023-04-14T21:19:56.128Z,9.40
2023-04-14T21:22:23.797Z,8.95
2023-04-14T21:24:51.350Z,8.02
2023-04-14T21:27:19.274Z,9.35
2023-04-14T21:29:46.764Z,10.68
2023-04-14T21:32:14.599Z,8.57
2023-04-14T21:34:42.344Z,9.80
2023-04-14T21:37:10.622Z,11.60
2023-04-14T21:39:38.302Z,16.02
2023-04-14T21:42:09.598Z,13.63
2023-04-14T21:44:37.522Z,14.40
2023-04-14T21:47:05.098Z,18.50
2023-04-14T21:49:32.868Z,19.58
2023-04-14T21:52:00.381Z,19.77
2023-04-14T21:54:30.164Z,19.45
2023-04-14T21:59:25.875Z,16.58
2023-04-14T22:01:54.200Z,18.80
2023-04-14T22:04:32.779Z,15.80
2023-04-14T22:07:02.619Z,22.13
2023-04-14T22:09:30.122Z,20.33
2023-04-14T22:11:58.759Z,19.95
2023-04-14T22:14:26.464Z,24.98
2023-04-14T22:16:55.056Z,20.67
2023-04-14T22:19:23.229Z,26.65
2023-04-14T22:21:50.733Z,25.42
2023-04-14T22:24:18.588Z,24.15
2023-04-14T22:26:46.140Z,34.10
2023-04-14T22:29:13.651Z,25.25
2023-04-14T22:31:41.659Z,25.30
2023-04-14T22:34:09.144Z,22.50
2023-04-14T22:36:36.662Z,29.17
2023-04-14T22:39:04.852Z,22.60
2023-04-14T22:41:32.458Z,23.77
2023-04-14T22:43:59.987Z,23.05
2023-04-14T22:46:27.506Z,25.85
2023-04-14T22:48:56.991Z,25.40
2023-04-14T22:51:24.554Z,23.02
2023-04-14T22:53:52.145Z,29.70
2023-04-14T22:56:23.271Z,29.65
2023-04-14T22:58:50.842Z,32.08
2023-04-14T23:01:22.682Z,35.85
2023-04-14T23:03:55.496Z,38.72
2023-04-14T23:06:23.284Z,34.75
2023-04-14T23:08:52.136Z,28.80
2023-04-14T23:11:21.005Z,33.63
2023-04-14T23:13:52.013Z,28.55
2023-04-14T23:16:20.219Z,28.83
2023-04-14T23:18:52.890Z,35.42
2023-04-14T23:21:24.779Z,30.42
2023-04-14T23:23:52.489Z,37.90
2023-04-14T23:26:21.764Z,35.28
2023-04-14T23:28:49.569Z,38.80
2023-04-14T23:31:18.003Z,37.22
2023-04-14T23:33:50.949Z,36.85
2023-04-14T23:36:20.033Z,34.67
2023-04-14T23:38:47.644Z,36.35
2023-04-14T23:41:15.714Z,39.53
2023-04-14T23:43:43.374Z,33.63
2023-04-14T23:46:11.420Z,35.35
2023-04-14T23:48:39.083Z,38.47
2023-04-14T23:51:20.109Z,35.13
2023-04-14T23:53:49.273Z,40.72
2023-04-14T23:56:16.956Z,44.00
2023-04-14T23:58:44.620Z,41.45
